createdAt,value
2022-07-25T00:00:56.658Z,8
2022-07-25T00:01:57.068Z,6.3
2022-07-25T00:02:58.148Z,8
2022-07-25T00:03:58.116Z,6.5
2022-07-25T00:04:58.421Z,7.1
2022-07-25T00:05:58.783Z,4.6
2022-07-25T00:06:59.275Z,5.1
2022-07-25T00:07:59.683Z,8.5
2022-07-25T00:09:00.178Z,7.5
2022-07-25T00:10:00.963Z,7.4
2022-07-25T00:11:01.161Z,7.6
2022-07-25T00:12:01.681Z,7.3
2022-07-25T00:13:02.309Z,5.7
2022-07-25T00:14:02.732Z,8.8
2022-07-25T00:15:03.240Z,7.3
2022-07-25T00:16:03.858Z,8.6
2022-07-25T00:17:04.072Z,8
2022-07-25T00:18:04.924Z,8
2022-07-25T00:19:05.118Z,6.3
2022-07-25T00:20:06.668Z,8.7
2022-07-25T00:21:06.274Z,7.6
2022-07-25T00:22:06.456Z,6.4
2022-07-25T00:23:06.985Z,7.3
2022-07-25T00:24:08.457Z,7.2
2022-07-25T00:25:08.218Z,7.7
2022-07-25T00:26:08.326Z,7.3
2022-07-25T00:27:08.749Z,8.4
2022-07-25T00:28:09.161Z,7.8
2022-07-25T00:29:09.482Z,6.1
2022-07-25T00:30:10.899Z,6.4
2022-07-25T00:31:10.632Z,6.3
2022-07-25T00:32:11.035Z,12.5
2022-07-25T00:33:11.558Z,10.2
2022-07-25T00:34:11.867Z,7.9
2022-07-25T00:35:12.389Z,6.1
2022-07-25T00:36:12.711Z,8.1
2022-07-25T00:37:13.208Z,8.1
2022-07-25T00:38:13.840Z,7.6
2022-07-25T00:39:14.352Z,8.9
2022-07-25T00:40:14.770Z,7.2
2022-07-25T00:41:15.284Z,7.6
2022-07-25T00:42:15.812Z,7.7
2022-07-25T00:43:16.424Z,7.3
2022-07-25T00:45:20.658Z,7.3
2022-07-25T00:46:21.140Z,6.7
2022-07-25T00:47:21.674Z,9.5
2022-07-25T00:48:22.493Z,10.9
2022-07-25T00:49:22.713Z,7.1
2022-07-25T00:50:23.330Z,9
2022-07-25T00:51:23.607Z,9.8
2022-07-25T00:52:24.025Z,7.5
2022-07-25T00:53:25.510Z,8.6
2022-07-25T00:54:25.311Z,10.6
2022-07-25T00:55:26.241Z,8.8
2022-07-25T00:56:26.156Z,8.6
2022-07-25T00:57:26.163Z,10.5
2022-07-25T00:58:26.765Z,6.5
2022-07-25T00:59:27.286Z,8.6
2022-07-25T01:00:28.015Z,10.4
2022-07-25T01:01:28.257Z,8.3
2022-07-25T01:02:28.818Z,7.1
2022-07-25T01:03:29.152Z,8.9
2022-07-25T01:04:29.569Z,8
2022-07-25T01:05:29.986Z,9.8
2022-07-25T01:06:31.126Z,9.9
2022-07-25T01:07:31.544Z,9.9
2022-07-25T01:08:32.357Z,7.2
2022-07-25T01:09:31.967Z,7.2
2022-07-25T01:10:33.396Z,5.1
2022-07-25T01:11:32.994Z,7
2022-07-25T01:12:33.213Z,6.5
2022-07-25T01:13:34.240Z,7.7
2022-07-25T01:14:34.050Z,10.6
2022-07-25T01:15:34.616Z,6
2022-07-25T01:16:35.179Z,7.8
2022-07-25T01:17:35.389Z,7.1
2022-07-25T01:18:35.908Z,7.8
2022-07-25T01:19:36.440Z,6
2022-07-25T01:20:36.947Z,6.7
2022-07-25T01:21:41.250Z,11
2022-07-25T01:22:38.707Z,7
2022-07-25T01:23:39.128Z,7.4
2022-07-25T01:24:40.260Z,7.4
2022-07-25T01:25:40.154Z,7.1
2022-07-25T01:26:40.573Z,8.1
2022-07-25T01:27:41.709Z,9
2022-07-25T01:28:41.371Z,6.7
2022-07-25T01:29:42.032Z,7.5
2022-07-25T01:30:42.601Z,7.2
2022-07-25T01:31:42.829Z,10
2022-07-25T01:32:44.201Z,6.8
2022-07-25T01:33:43.757Z,7.1
2022-07-25T01:34:44.227Z,7.1
2022-07-25T01:35:46.268Z,8.3
2022-07-25T01:36:45.250Z,8.2
2022-07-25T01:37:46.083Z,8.7
2022-07-25T01:38:46.200Z,6.5
2022-07-25T01:39:46.720Z,6.9
2022-07-25T01:40:47.012Z,6.6
2022-07-25T01:41:47.439Z,7.1
2022-07-25T01:42:48.267Z,6.9
2022-07-25T01:43:48.575Z,6.3
2022-07-25T01:44:49.290Z,6.9
2022-07-25T01:45:49.601Z,8.4
2022-07-25T01:46:49.915Z,9.6
2022-07-25T01:47:50.329Z,6.8
2022-07-25T01:48:50.806Z,7.8
2022-07-25T01:49:51.168Z,8.7
2022-07-25T01:50:51.786Z,5.9
2022-07-25T01:51:52.315Z,8.7
2022-07-25T01:52:52.825Z,6.5
2022-07-25T01:53:53.032Z,6.6
2022-07-25T01:54:53.553Z,9.1
2022-07-25T01:55:54.512Z,5.8
2022-07-25T01:56:54.792Z,10.4
2022-07-25T01:57:55.591Z,8.3
2022-07-25T01:58:55.940Z,9.2
2022-07-25T01:59:56.245Z,6
2022-07-25T02:00:56.820Z,6.2
2022-07-25T02:01:57.323Z,5.3
2022-07-25T02:02:57.704Z,8.4
2022-07-25T02:03:58.119Z,8.5
2022-07-25T02:04:58.685Z,5.5
2022-07-25T02:07:03.057Z,6.9
2022-07-25T02:08:03.630Z,6.7
2022-07-25T02:09:04.701Z,7.5
2022-07-25T02:10:06.768Z,8.5
2022-07-25T02:11:05.132Z,5.5
2022-07-25T02:12:05.811Z,5
2022-07-25T02:13:05.666Z,7.7
2022-07-25T02:14:06.652Z,5.6
2022-07-25T02:15:07.709Z,6.4
2022-07-25T02:16:07.110Z,5.9
2022-07-25T02:17:07.768Z,9.7
2022-07-25T02:18:07.943Z,5.7
2022-07-25T02:19:08.457Z,9.5
2022-07-25T02:20:10.096Z,8.5
2022-07-25T02:21:13.776Z,10.4
2022-07-25T02:22:11.977Z,6
2022-07-25T02:23:12.786Z,7.4
2022-07-25T02:24:12.901Z,5.5
2022-07-25T02:25:13.411Z,8.5
2022-07-25T02:26:14.644Z,9.1
2022-07-25T02:27:14.450Z,7.3
2022-07-25T02:28:14.863Z,6.6
2022-07-25T02:29:15.315Z,10.2
2022-07-25T02:30:15.760Z,6.2
2022-07-25T02:31:16.590Z,13.8
2022-07-25T02:32:16.632Z,9.1
2022-07-25T02:33:17.361Z,7.1
2022-07-25T02:34:17.574Z,7.5
2022-07-25T02:35:18.671Z,7.9
2022-07-25T02:36:18.718Z,9.3
2022-07-25T02:37:19.011Z,9.1
2022-07-25T02:38:19.658Z,11.5
2022-07-25T02:39:20.055Z,8.7
2022-07-25T02:40:20.684Z,8
2022-07-25T02:41:21.087Z,6.5
2022-07-25T02:42:21.207Z,12.2
2022-07-25T02:43:22.230Z,7.3
2022-07-25T02:44:22.238Z,6.7
2022-07-25T02:45:22.862Z,9
2022-07-25T02:46:23.333Z,9
2022-07-25T02:47:23.691Z,7.8
2022-07-25T02:48:24.332Z,9.1
2022-07-25T02:49:24.730Z,10.7
2022-07-25T02:50:25.775Z,6.2
2022-07-25T02:51:25.973Z,6
2022-07-25T02:52:26.095Z,7.9
2022-07-25T02:53:47.149Z,9.4
2022-07-25T02:54:28.767Z,6.7
2022-07-25T02:55:29.483Z,6.4
2022-07-25T02:56:31.871Z,6.6
2022-07-25T02:57:30.327Z,9.4
2022-07-25T02:58:30.829Z,8.3
2022-07-25T02:59:32.212Z,7.4
2022-07-25T03:00:31.570Z,7
2022-07-25T03:01:32.601Z,6.6
2022-07-25T03:02:32.700Z,8.1
2022-07-25T03:03:33.242Z,7.6
2022-07-25T03:04:33.555Z,6.1
2022-07-25T03:05:34.157Z,7.7
2022-07-25T03:06:34.491Z,7.8
2022-07-25T03:07:35.200Z,11.5
2022-07-25T03:08:35.611Z,8.4
2022-07-25T03:09:35.816Z,11.6
2022-07-25T03:10:36.232Z,10
2022-07-25T03:11:37.005Z,10.3
2022-07-25T03:12:37.700Z,5.8
2022-07-25T03:13:37.686Z,9.9
2022-07-25T03:14:38.304Z,8.8
2022-07-25T03:15:38.529Z,7.2
2022-07-25T03:16:39.092Z,8
2022-07-25T03:17:39.462Z,7.4
2022-07-25T03:18:39.865Z,13.3
2022-07-25T03:19:40.508Z,7
2022-07-25T03:20:40.810Z,6.7
2022-07-25T03:21:41.232Z,9.3
2022-07-25T03:22:41.748Z,10.9
2022-07-25T03:23:42.265Z,5.8
2022-07-25T03:24:43.084Z,5.3
2022-07-25T03:25:43.188Z,6.8
2022-07-25T03:26:43.525Z,9
2022-07-25T03:27:44.239Z,7
2022-07-25T03:28:44.750Z,6.3
2022-07-25T03:29:45.274Z,11.7
2022-07-25T03:30:46.109Z,7.7
2022-07-25T03:31:45.954Z,5.5
2022-07-25T03:32:46.517Z,6
2022-07-25T03:33:47.039Z,6.7
2022-07-25T03:34:47.451Z,7
2022-07-25T03:35:48.083Z,8.6
2022-07-25T03:36:48.390Z,6.4
2022-07-25T03:37:48.820Z,9.5
2022-07-25T03:38:49.315Z,8.8
2022-07-25T03:39:49.737Z,4.6
2022-07-25T03:40:50.253Z,7.9
2022-07-25T03:41:51.077Z,8
2022-07-25T03:42:51.086Z,6.3
2022-07-25T03:43:51.608Z,7
2022-07-25T03:44:51.931Z,8.5
2022-07-25T03:45:52.489Z,5.8
2022-07-25T03:46:52.954Z,6.7
2022-07-25T03:47:53.369Z,6.2
2022-07-25T03:48:54.053Z,8.2
2022-07-25T03:49:54.308Z,6.8
2022-07-25T03:50:56.671Z,3.9
2022-07-25T03:51:55.143Z,7.1
2022-07-25T03:52:55.652Z,6.6
2022-07-25T03:53:56.390Z,8.6
2022-07-25T03:54:56.699Z,7.6
2022-07-25T03:55:57.111Z,6
2022-07-25T03:56:57.736Z,6.9
2022-07-25T03:57:57.945Z,7
2022-07-25T03:58:59.304Z,6
2022-07-25T03:59:59.002Z,5.7
2022-07-25T04:00:59.337Z,10.3
2022-07-25T04:02:00.198Z,7.2
2022-07-25T04:03:00.229Z,8.5
2022-07-25T04:04:02.467Z,6.1
2022-07-25T04:05:01.169Z,7.5
2022-07-25T04:06:02.012Z,8.5
2022-07-25T04:07:02.316Z,7.6
2022-07-25T04:08:03.042Z,8.4
2022-07-25T04:09:03.986Z,6.3
2022-07-25T04:10:05.701Z,7.7
2022-07-25T04:11:04.178Z,5.7
2022-07-25T04:12:05.610Z,10.9
2022-07-25T04:13:04.904Z,8.8
2022-07-25T04:14:06.794Z,6.5
2022-07-25T04:15:07.180Z,9.8
2022-07-25T04:16:10.334Z,9.3
2022-07-25T04:17:07.273Z,6.1
2022-07-25T04:18:07.814Z,8.8
2022-07-25T04:19:10.064Z,6.7
2022-07-25T04:20:10.761Z,7
2022-07-25T04:21:10.915Z,12.9
2022-07-25T04:22:11.121Z,8.5
2022-07-25T04:23:11.478Z,7.3
2022-07-25T04:24:12.141Z,6.5
2022-07-25T04:25:12.563Z,9
2022-07-25T04:26:13.091Z,8.3
2022-07-25T04:27:13.821Z,5.2
2022-07-25T04:28:13.920Z,8.1
2022-07-25T04:29:14.833Z,8
2022-07-25T04:30:23.889Z,7.2
2022-07-25T04:31:17.607Z,7.8
2022-07-25T04:32:22.959Z,5
2022-07-25T04:33:21.719Z,10.6
2022-07-25T04:34:21.950Z,7
2022-07-25T04:35:22.568Z,6.4
2022-07-25T04:36:22.671Z,8.9
2022-07-25T04:37:23.080Z,8.4
2022-07-25T04:38:23.622Z,9.3
2022-07-25T04:39:23.929Z,8.2
2022-07-25T04:40:24.432Z,7.1
2022-07-25T04:41:24.749Z,8.8
2022-07-25T04:42:25.379Z,9.2
2022-07-25T04:43:25.894Z,7.4
2022-07-25T04:44:26.304Z,8.6
2022-07-25T04:45:27.127Z,5.4
2022-07-25T04:46:27.132Z,9.7
2022-07-25T04:47:27.963Z,8.9
2022-07-25T04:48:28.191Z,7.4
2022-07-25T04:49:29.416Z,7.3
2022-07-25T04:50:29.719Z,6
2022-07-25T04:51:29.526Z,8.8
2022-07-25T04:52:29.937Z,7.9
2022-07-25T04:53:30.255Z,7.6
2022-07-25T04:54:30.989Z,8.1
2022-07-25T04:55:31.401Z,8.2
2022-07-25T04:56:31.922Z,7.2
2022-07-25T04:57:32.323Z,8.5
2022-07-25T04:58:32.952Z,7.1
2022-07-25T04:59:33.265Z,7.8
2022-07-25T05:00:34.231Z,10.9
2022-07-25T05:01:34.938Z,6.9
2022-07-25T05:02:35.300Z,5.6
2022-07-25T05:03:35.136Z,3.9
2022-07-25T05:04:35.558Z,6.3
2022-07-25T05:05:36.172Z,6.1
2022-07-25T05:06:36.272Z,6.1
2022-07-25T05:07:37.307Z,4.9
2022-07-25T05:08:37.223Z,6.4
2022-07-25T05:09:38.004Z,6.4
2022-07-25T05:10:37.960Z,7.2
2022-07-25T05:11:42.479Z,5.2
2022-07-25T05:12:42.973Z,8.3
2022-07-25T05:13:43.492Z,4.4
2022-07-25T05:14:44.022Z,5.2
2022-07-25T05:15:44.025Z,5.1
2022-07-25T05:16:44.424Z,5.3
2022-07-25T05:17:45.114Z,4.5
2022-07-25T05:18:45.695Z,9.5
2022-07-25T05:19:45.988Z,7.8
2022-07-25T05:20:46.115Z,4.5
2022-07-25T05:21:46.720Z,5.7
2022-07-25T05:22:47.046Z,9.6
2022-07-25T05:23:47.456Z,4.4
2022-07-25T05:24:47.972Z,5.3
2022-07-25T05:25:48.287Z,7.4
2022-07-25T05:26:49.012Z,4.8
2022-07-25T05:27:49.124Z,7.6
2022-07-25T05:28:49.331Z,4.9
2022-07-25T05:29:50.076Z,4.5
2022-07-25T05:30:50.261Z,5.6
2022-07-25T05:31:50.756Z,7.7
2022-07-25T05:32:51.090Z,10.3
2022-07-25T05:33:51.710Z,6.3
2022-07-25T05:34:52.021Z,6.7
2022-07-25T05:35:52.451Z,7.4
2022-07-25T05:36:52.568Z,4.4
2022-07-25T05:37:52.873Z,8.2
2022-07-25T05:38:53.312Z,7.1
2022-07-25T05:39:53.910Z,5
2022-07-25T05:40:54.421Z,6.2
2022-07-25T05:41:54.935Z,7.5
2022-07-25T05:42:58.315Z,5.7
2022-07-25T05:43:59.869Z,6.6
2022-07-25T05:45:00.795Z,5.9
2022-07-25T05:46:04.900Z,7.5
2022-07-25T05:47:02.416Z,4.6
2022-07-25T05:48:02.768Z,6.5
2022-07-25T05:49:03.256Z,6.7
2022-07-25T05:50:04.215Z,6.3
2022-07-25T05:51:04.136Z,6.6
2022-07-25T05:52:08.263Z,5.5
2022-07-25T05:53:08.532Z,5.9
2022-07-25T05:54:09.342Z,5.7
2022-07-25T05:55:09.982Z,8
2022-07-25T05:56:10.442Z,5.6
2022-07-25T05:57:10.194Z,5.7
2022-07-25T05:58:10.411Z,6.4
2022-07-25T05:59:10.822Z,6.8
2022-07-25T06:00:12.172Z,7.9
2022-07-25T06:01:15.669Z,3.9
2022-07-25T06:02:13.319Z,4.7
2022-07-25T06:03:13.459Z,9.2
2022-07-25T06:04:13.933Z,7.2
2022-07-25T06:05:14.243Z,4
2022-07-25T06:06:14.553Z,4.9
2022-07-25T06:07:17.182Z,6.2
2022-07-25T06:08:15.585Z,6.6
2022-07-25T06:09:15.702Z,3.6
2022-07-25T06:10:16.115Z,7.2
2022-07-25T06:11:16.753Z,6.5
2022-07-25T06:12:16.945Z,5.4
2022-07-25T06:13:17.366Z,4.7
2022-07-25T06:14:18.339Z,5.5
2022-07-25T06:15:22.507Z,8
2022-07-25T06:16:18.882Z,7.3
2022-07-25T06:17:19.385Z,4.9
2022-07-25T06:18:19.652Z,6.6
2022-07-25T06:19:19.973Z,5.9
2022-07-25T06:20:20.805Z,5.2
2022-07-25T06:21:20.804Z,4.2
2022-07-25T06:22:21.110Z,4.9
2022-07-25T06:23:21.428Z,5.1
2022-07-25T06:24:21.908Z,5.2
2022-07-25T06:25:22.978Z,4.1
2022-07-25T06:26:22.573Z,4.4
2022-07-25T06:27:27.455Z,5.3
2022-07-25T06:28:26.584Z,4.1
2022-07-25T06:29:26.994Z,4.9
2022-07-25T06:30:27.625Z,5.6
2022-07-25T06:31:27.674Z,4.5
2022-07-25T06:32:28.140Z,4.5
2022-07-25T06:33:28.556Z,10.1
2022-07-25T06:34:29.094Z,3.3
2022-07-25T06:35:29.387Z,5.4
2022-07-25T06:36:32.382Z,5.4
2022-07-25T06:37:30.424Z,3.1
2022-07-25T06:38:30.951Z,6.8
2022-07-25T06:39:31.157Z,6.6
2022-07-25T06:40:31.569Z,6.9
2022-07-25T06:41:31.780Z,8.4
2022-07-25T06:42:32.306Z,3.4
2022-07-25T06:43:32.627Z,4.7
2022-07-25T06:44:35.925Z,6.1
2022-07-25T06:45:33.854Z,3.1
2022-07-25T06:46:33.698Z,4.1
2022-07-25T06:47:36.170Z,4.3
2022-07-25T06:48:34.669Z,4.1
2022-07-25T06:49:34.802Z,4.3
2022-07-25T06:50:35.337Z,8.2
2022-07-25T06:51:35.657Z,4.5
2022-07-25T06:52:36.570Z,4.4
2022-07-25T06:53:36.365Z,5.6
2022-07-25T06:54:37.301Z,3.7
2022-07-25T06:55:37.196Z,5.6
2022-07-25T06:56:37.510Z,5.4
2022-07-25T06:57:38.242Z,5.5
2022-07-25T06:58:38.448Z,4.5
2022-07-25T06:59:38.656Z,3.2
2022-07-25T07:00:39.361Z,5.4
2022-07-25T07:01:39.497Z,3.4
2022-07-25T07:03:44.921Z,4.4
2022-07-25T07:04:44.997Z,8.6
2022-07-25T07:05:45.778Z,6.5
2022-07-25T07:06:46.075Z,6.9
2022-07-25T07:07:47.977Z,4.4
2022-07-25T07:08:46.854Z,5.8
2022-07-25T07:09:47.022Z,4.5
2022-07-25T07:10:47.741Z,7.5
2022-07-25T07:11:47.950Z,5.1
2022-07-25T07:12:48.992Z,4.2
2022-07-25T07:13:49.090Z,5.9
2022-07-25T07:14:48.897Z,5.3
2022-07-25T07:15:49.906Z,4.8
2022-07-25T07:16:49.739Z,4.8
2022-07-25T07:17:50.249Z,3.7
2022-07-25T07:18:50.564Z,6.8
2022-07-25T07:19:50.885Z,6
2022-07-25T07:20:51.701Z,3.4
2022-07-25T07:21:51.820Z,6.4
2022-07-25T07:22:52.124Z,4.2
2022-07-25T07:23:53.695Z,6.3
2022-07-25T07:24:52.852Z,5.9
2022-07-25T07:25:53.377Z,4.9
2022-07-25T07:26:54.634Z,3.8
2022-07-25T07:27:54.301Z,4.6
2022-07-25T07:28:54.603Z,5.5
2022-07-25T07:29:54.931Z,5.5
2022-07-25T07:31:57.910Z,7.9
2022-07-25T07:32:58.336Z,6.2
2022-07-25T07:33:58.611Z,4.3
2022-07-25T07:34:59.058Z,7.1
2022-07-25T07:35:59.889Z,5.8
2022-07-25T07:36:59.991Z,7.8
2022-07-25T07:38:00.204Z,3.5
2022-07-25T07:39:00.740Z,5.4
2022-07-25T07:40:00.835Z,4.4
2022-07-25T07:41:01.455Z,5.4
2022-07-25T07:42:01.876Z,5.4
2022-07-25T07:43:02.189Z,4.1
2022-07-25T07:44:02.770Z,4.2
2022-07-25T07:45:03.352Z,4.1
2022-07-25T07:46:03.611Z,3.5
2022-07-25T07:47:03.769Z,5.3
2022-07-25T07:48:06.326Z,5.9
2022-07-25T07:49:05.066Z,5.2
2022-07-25T07:50:05.917Z,3.1
2022-07-25T07:51:06.342Z,5.3
2022-07-25T07:52:06.242Z,6.3
2022-07-25T07:53:06.347Z,5.4
2022-07-25T07:54:06.776Z,7.3
2022-07-25T07:55:08.113Z,5.9
2022-07-25T07:56:07.915Z,4.6
2022-07-25T07:57:08.023Z,3.4
2022-07-25T07:58:08.326Z,5.3
2022-07-25T07:59:08.878Z,3.9
2022-07-25T08:00:14.810Z,4.1
2022-07-25T08:01:13.875Z,3.4
2022-07-25T08:02:14.292Z,3.9
2022-07-25T08:04:16.354Z,4.7
2022-07-25T08:06:17.396Z,4.2
2022-07-25T08:07:17.665Z,5.4
2022-07-25T08:08:18.028Z,2.8
2022-07-25T08:09:18.331Z,3.3
2022-07-25T08:10:23.765Z,3.2
2022-07-25T08:11:21.225Z,2.8
2022-07-25T08:12:21.534Z,2
2022-07-25T08:13:25.071Z,4.6
2022-07-25T08:14:22.870Z,6
2022-07-25T08:15:23.391Z,4.1
2022-07-25T08:16:23.361Z,4.1
2022-07-25T08:17:28.437Z,3.9
2022-07-25T08:18:27.573Z,4.5
2022-07-25T08:19:27.100Z,3
2022-07-25T08:20:38.022Z,3.3
2022-07-25T08:21:31.111Z,3.9
2022-07-25T08:22:42.786Z,3.3
2022-07-25T08:23:36.133Z,2
2022-07-25T08:24:35.855Z,5.4
2022-07-25T08:25:35.972Z,3.8
2022-07-25T08:26:36.669Z,2.4
2022-07-25T08:27:36.980Z,3.9
2022-07-25T08:28:37.189Z,5.4
2022-07-25T08:29:37.613Z,3
2022-07-25T08:30:39.977Z,3.2
2022-07-25T08:31:38.802Z,3.2
2022-07-25T08:33:40.725Z,5.2
2022-07-25T08:34:41.026Z,7.1
2022-07-25T08:35:49.250Z,5
2022-07-25T08:36:41.752Z,5.7
2022-07-25T08:37:42.275Z,5
2022-07-25T08:38:42.993Z,4.6
2022-07-25T08:39:43.004Z,3.6
2022-07-25T08:40:43.637Z,5.9
2022-07-25T08:41:44.142Z,3
2022-07-25T08:42:44.352Z,4.7
2022-07-25T08:43:47.808Z,2.4
2022-07-25T08:44:55.731Z,3.6
2022-07-25T08:45:54.176Z,5.8
2022-07-25T08:46:52.226Z,2.5
2022-07-25T08:47:53.498Z,4.5
2022-07-25T08:48:53.151Z,2
2022-07-25T08:49:53.414Z,5.6
2022-07-25T08:50:54.868Z,4.2
2022-07-25T08:51:55.235Z,4.2
2022-07-25T08:53:09.953Z,2.7
2022-07-25T08:53:58.477Z,2.3
2022-07-25T08:54:58.458Z,4.2
2022-07-25T08:55:58.877Z,2.4
2022-07-25T08:56:58.990Z,4.3
2022-07-25T08:57:59.420Z,4.6
2022-07-25T08:58:59.827Z,2.9
2022-07-25T09:00:00.641Z,2.9
2022-07-25T09:01:00.747Z,3.7
2022-07-25T09:02:01.214Z,1.6
2022-07-25T09:03:03.392Z,1.7
2022-07-25T09:04:03.660Z,3.7
2022-07-25T09:05:02.319Z,2.2
2022-07-25T09:07:07.799Z,1.6
2022-07-25T09:09:10.141Z,1.2
2022-07-25T09:11:11.162Z,2
2022-07-25T09:12:11.686Z,4.7
2022-07-25T09:13:14.057Z,3.4
2022-07-25T09:14:14.961Z,1.9
2022-07-25T09:16:14.935Z,3.5
2022-07-25T09:17:22.143Z,5.1
2022-07-25T09:18:18.175Z,2.4
2022-07-25T09:19:22.065Z,2.6
2022-07-25T09:20:19.744Z,2.2
2022-07-25T09:21:19.828Z,3.1
2022-07-25T09:22:20.358Z,2.1
2022-07-25T09:24:23.431Z,4.5
2022-07-25T09:25:26.712Z,2.5
2022-07-25T09:26:24.224Z,1.4
2022-07-25T09:27:24.684Z,3.5
2022-07-25T09:28:25.018Z,2.6
2022-07-25T09:29:31.258Z,2.1
2022-07-25T09:30:28.763Z,2.7
2022-07-25T09:31:33.481Z,8.1
2022-07-25T09:32:31.194Z,4.5
2022-07-25T09:33:32.196Z,5.4
2022-07-25T09:34:42.243Z,7.3
2022-07-25T09:35:36.034Z,3.2
2022-07-25T09:36:34.884Z,2.8
2022-07-25T09:37:35.429Z,6.6
2022-07-25T09:38:35.502Z,6
2022-07-25T09:39:46.808Z,5.9
2022-07-25T09:40:39.972Z,3.6
2022-07-25T09:41:41.567Z,4.7
2022-07-25T09:42:40.552Z,4.8
2022-07-25T09:43:42.600Z,7.7
2022-07-25T09:44:41.179Z,3
2022-07-25T09:45:49.441Z,2.5
2022-07-25T09:46:42.052Z,3
2022-07-25T09:48:57.847Z,1.4
2022-07-25T09:49:50.732Z,0.9
2022-07-25T09:50:50.853Z,1.6
2022-07-25T09:51:51.372Z,1.6
2022-07-25T09:52:53.320Z,1.2
2022-07-25T09:53:52.090Z,1.4
2022-07-25T09:54:54.871Z,1
2022-07-25T09:55:52.409Z,2.2
2022-07-25T09:56:52.619Z,1.7
2022-07-25T09:57:53.140Z,5
2022-07-25T09:58:53.562Z,2
2022-07-25T09:59:53.775Z,1.1
2022-07-25T10:00:58.178Z,3.2
2022-07-25T10:02:09.027Z,2.5
2022-07-25T10:07:10.300Z,1.4
2022-07-25T10:08:08.364Z,2.2
2022-07-25T10:09:12.783Z,2.8
2022-07-25T10:12:22.124Z,2.6
2022-07-25T10:14:21.918Z,1.1
2022-07-25T10:15:22.747Z,2.2
2022-07-25T10:16:25.062Z,1.2
2022-07-25T10:17:23.223Z,2.6
2022-07-25T10:18:26.564Z,2
2022-07-25T10:20:29.541Z,3
2022-07-25T10:21:29.197Z,1.7
2022-07-25T10:23:29.965Z,4.7
2022-07-25T10:24:34.894Z,3.8
2022-07-25T10:25:32.536Z,2.7
2022-07-25T10:26:34.802Z,3.2
2022-07-25T10:27:43.612Z,3.9
2022-07-25T10:28:45.251Z,1.1
2022-07-25T10:29:39.487Z,4.1
2022-07-25T10:30:40.240Z,2
2022-07-25T10:31:47.633Z,1.8
2022-07-25T10:33:43.445Z,0.7
2022-07-25T10:34:52.974Z,1.5
2022-07-25T10:35:45.513Z,1.3
2022-07-25T10:36:52.988Z,1.4
2022-07-25T10:37:52.903Z,1.1
2022-07-25T10:38:57.222Z,1
2022-07-25T10:39:55.122Z,1.9
2022-07-25T10:41:00.810Z,3.2
2022-07-25T10:42:01.224Z,1.8
2022-07-25T10:43:09.469Z,3
2022-07-25T10:44:02.062Z,0.9
2022-07-25T10:45:02.665Z,1.3
2022-07-25T10:46:02.685Z,1.2
2022-07-25T10:47:16.328Z,0.7
2022-07-25T10:48:08.732Z,1.3
2022-07-25T10:49:08.793Z,1.9
2022-07-25T10:50:25.481Z,3.2
2022-07-25T10:51:10.594Z,3
2022-07-25T10:52:16.652Z,2.3
2022-07-25T10:53:09.693Z,1
2022-07-25T10:57:21.714Z,1.4
2022-07-25T10:58:22.622Z,0.7
2022-07-25T11:00:22.025Z,1.8
2022-07-25T11:02:27.359Z,0.9
2022-07-25T11:03:33.504Z,2.4
2022-07-25T11:04:31.046Z,0.9
2022-07-25T11:05:31.467Z,5.5
2022-07-25T11:06:42.333Z,18.4
2022-07-25T11:07:34.876Z,8
2022-07-25T11:08:35.593Z,1.9
2022-07-25T11:09:35.597Z,1.4
2022-07-25T11:10:35.700Z,0.6
2022-07-25T11:11:41.440Z,0.9
2022-07-25T11:12:38.884Z,3.2
2022-07-25T11:13:42.796Z,2.5
2022-07-25T11:14:42.077Z,3.4
2022-07-25T11:15:40.887Z,0.8
2022-07-25T11:16:41.020Z,1.4
2022-07-25T11:17:50.895Z,2.5
2022-07-25T11:18:43.333Z,1.7
2022-07-25T11:19:45.235Z,1.3
2022-07-25T11:20:44.054Z,0.6
2022-07-25T11:21:49.285Z,0.6
2022-07-25T11:22:56.054Z,0.7
2022-07-25T11:23:53.965Z,1.2
2022-07-25T11:24:51.655Z,0.7
2022-07-25T11:25:51.878Z,2.2
2022-07-25T11:26:53.479Z,2.8
2022-07-25T11:28:01.676Z,0.6
2022-07-25T11:28:54.145Z,1.5
2022-07-25T11:33:04.311Z,2.5
2022-07-25T11:34:04.948Z,2.5
2022-07-25T11:35:05.962Z,1.7
2022-07-25T11:36:06.172Z,1.6
2022-07-25T11:37:08.252Z,0.6
2022-07-25T11:38:06.416Z,3.1
2022-07-25T11:39:06.639Z,2.8
2022-07-25T11:40:08.359Z,2.4
2022-07-25T11:41:07.655Z,2.7
2022-07-25T11:43:07.887Z,4
2022-07-25T11:44:08.481Z,2.2
2022-07-25T11:46:10.387Z,3.2
2022-07-25T11:47:24.492Z,2.9
2022-07-25T11:48:13.524Z,1.7
2022-07-25T11:49:12.896Z,2
2022-07-25T11:50:12.822Z,1.1
2022-07-25T11:51:19.005Z,4.7
2022-07-25T11:52:28.720Z,6.4
2022-07-25T11:53:21.440Z,2.9
2022-07-25T11:54:21.563Z,5.6
2022-07-25T11:55:29.246Z,1.8
2022-07-25T11:56:42.649Z,2.4
2022-07-25T11:57:33.862Z,0.4
2022-07-25T11:58:31.512Z,0.8
2022-07-25T11:59:42.171Z,0.8
2022-07-25T12:00:39.838Z,0.8
2022-07-25T12:01:42.393Z,1.4
2022-07-25T12:02:40.114Z,1.6
2022-07-25T12:03:40.801Z,1.4
2022-07-25T12:04:40.616Z,1.9
2022-07-25T12:05:41.389Z,1.6
2022-07-25T12:06:43.233Z,3.3
2022-07-25T12:07:52.156Z,0.6
2022-07-25T12:08:44.794Z,2.8
2022-07-25T12:09:56.080Z,0.7
2022-07-25T12:10:49.833Z,0.6
2022-07-25T12:11:49.369Z,1.7
2022-07-25T12:12:53.832Z,1.5
2022-07-25T12:14:02.138Z,2.1
2022-07-25T12:14:54.555Z,2.4
2022-07-25T12:15:57.336Z,2
2022-07-25T12:16:55.298Z,1.9
2022-07-25T12:17:57.547Z,1.9
2022-07-25T12:18:55.810Z,2.4
2022-07-25T12:19:56.222Z,2
2022-07-25T12:20:56.459Z,1.3
2022-07-25T12:21:56.859Z,0.5
2022-07-25T12:23:05.315Z,2.5
2022-07-25T12:23:57.792Z,4.4
2022-07-25T12:24:58.104Z,3
2022-07-25T12:25:58.617Z,3.2
2022-07-25T12:26:59.400Z,2.7
2022-07-25T12:28:00.897Z,1.4
2022-07-25T12:28:59.359Z,2.3
2022-07-25T12:30:00.105Z,1.7
2022-07-25T12:31:00.176Z,5.1
2022-07-25T12:32:00.305Z,3.9
2022-07-25T12:33:01.444Z,0.4
2022-07-25T12:34:01.130Z,1.1
2022-07-25T12:35:01.746Z,1.3
2022-07-25T12:36:08.070Z,1.8
2022-07-25T12:37:06.185Z,0.9
2022-07-25T12:38:06.520Z,1.9
2022-07-25T12:39:07.154Z,1.1
2022-07-25T12:40:08.337Z,1
2022-07-25T12:41:07.529Z,1.1
2022-07-25T12:42:07.634Z,1.7
2022-07-25T12:43:08.149Z,1.1
2022-07-25T12:44:08.363Z,3.2
2022-07-25T12:45:09.404Z,1
2022-07-25T12:46:09.192Z,3.4
2022-07-25T12:47:09.211Z,3.6
2022-07-25T12:48:10.234Z,4.1
2022-07-25T12:49:10.749Z,5.3
2022-07-25T12:50:10.343Z,2.3
2022-07-25T12:51:10.703Z,4.8
2022-07-25T12:52:11.610Z,5.6
2022-07-25T12:53:11.409Z,5.7
2022-07-25T12:54:11.702Z,6.6
2022-07-25T12:55:14.793Z,8.4
2022-07-25T12:56:12.756Z,6.6
2022-07-25T12:57:13.778Z,18.4
2022-07-25T12:58:13.279Z,6.8
2022-07-25T12:59:13.559Z,2.6
2022-07-25T13:00:16.862Z,2.9
2022-07-25T13:01:14.780Z,2.9
2022-07-25T13:02:15.293Z,1.3
2022-07-25T13:03:15.359Z,13.9
2022-07-25T13:04:15.352Z,3.3
2022-07-25T13:05:15.720Z,1.1
2022-07-25T13:06:15.994Z,3.4
2022-07-25T13:07:16.616Z,3
2022-07-25T13:08:16.912Z,3.1
2022-07-25T13:09:17.227Z,1.6
2022-07-25T13:10:18.673Z,2.9
2022-07-25T13:11:17.658Z,1
2022-07-25T13:12:18.069Z,4.1
2022-07-25T13:13:18.581Z,2.8
2022-07-25T13:14:19.006Z,0.9
2022-07-25T13:15:19.625Z,5.9
2022-07-25T13:16:19.778Z,15.7
2022-07-25T13:17:23.633Z,16.8
2022-07-25T13:18:24.878Z,3.2
2022-07-25T13:19:24.973Z,2.6
2022-07-25T13:20:25.409Z,0.5
2022-07-25T13:21:25.620Z,3.5
2022-07-25T13:22:26.539Z,2.2
2022-07-25T13:23:26.541Z,1.7
2022-07-25T13:24:26.851Z,1.9
2022-07-25T13:25:27.037Z,1.5
2022-07-25T13:26:27.290Z,1
2022-07-25T13:27:27.764Z,0.8
2022-07-25T13:28:28.306Z,2.6
2022-07-25T13:29:28.428Z,4
2022-07-25T13:30:28.949Z,2.1
2022-07-25T13:31:29.302Z,1
2022-07-25T13:32:29.468Z,1.6
2022-07-25T13:33:29.884Z,0.9
2022-07-25T13:34:30.295Z,2.8
2022-07-25T13:35:36.465Z,1.5
2022-07-25T13:36:32.766Z,2.1
2022-07-25T13:37:32.785Z,5
2022-07-25T13:38:31.976Z,4.3
2022-07-25T13:39:32.227Z,2.1
2022-07-25T13:40:32.455Z,2.6
2022-07-25T13:41:33.001Z,1.6
2022-07-25T13:42:33.419Z,3.9
2022-07-25T13:43:33.940Z,3.5
2022-07-25T13:44:33.796Z,6.8
2022-07-25T13:45:34.594Z,0.6
2022-07-25T13:46:34.776Z,2.3
2022-07-25T13:47:34.932Z,6
2022-07-25T13:48:35.680Z,3.6
2022-07-25T13:49:35.817Z,2.7
2022-07-25T13:50:36.037Z,0.4
2022-07-25T13:51:36.553Z,1.7
2022-07-25T13:52:36.775Z,0.6
2022-07-25T13:53:37.156Z,1.2
2022-07-25T13:54:37.820Z,3.2
2022-07-25T13:55:37.801Z,0.5
2022-07-25T13:56:38.133Z,1.4
2022-07-25T13:57:38.448Z,1
2022-07-25T13:58:38.850Z,3
2022-07-25T13:59:40.094Z,1.1
2022-07-25T14:00:39.703Z,0.9
2022-07-25T14:01:40.073Z,1.7
2022-07-25T14:02:40.337Z,2.1
2022-07-25T14:03:40.396Z,1.8
2022-07-25T14:04:40.936Z,1.7
2022-07-25T14:05:41.577Z,0.9
2022-07-25T14:06:41.408Z,2.9
2022-07-25T14:07:41.984Z,4.1
2022-07-25T14:08:42.318Z,2.4
2022-07-25T14:09:42.516Z,1.7
2022-07-25T14:10:42.819Z,2.4
2022-07-25T14:11:43.245Z,1.8
2022-07-25T14:12:43.550Z,2.4
2022-07-25T14:13:44.173Z,2
2022-07-25T14:14:44.076Z,1
2022-07-25T14:15:44.606Z,0.8
2022-07-25T14:16:45.429Z,1
2022-07-25T14:17:45.637Z,0.7
2022-07-25T14:18:45.643Z,1
2022-07-25T14:19:46.074Z,1.7
2022-07-25T14:20:46.174Z,1.7
2022-07-25T14:21:46.696Z,3
2022-07-25T14:22:46.805Z,2.4
2022-07-25T14:23:47.738Z,1.1
2022-07-25T14:24:47.735Z,1.3
2022-07-25T14:25:48.253Z,2.4
2022-07-25T14:26:48.264Z,2.4
2022-07-25T14:27:48.784Z,2
2022-07-25T14:28:49.091Z,1.2
2022-07-25T14:29:49.312Z,0.6
2022-07-25T14:30:49.617Z,1.2
2022-07-25T14:31:50.284Z,0.7
2022-07-25T14:32:50.351Z,2.2
2022-07-25T14:33:51.164Z,2.3
2022-07-25T14:34:51.069Z,6.4